createdAt,value
2023-03-31T00:00:56.684Z,9.93
2023-03-31T00:01:56.688Z,9.91
2023-03-31T00:02:56.741Z,9.93
2023-03-31T00:03:56.831Z,9.94
2023-03-31T00:04:56.704Z,9.94
2023-03-31T00:05:56.697Z,9.94
2023-03-31T00:06:56.624Z,9.94
2023-03-31T00:07:56.600Z,9.99
2023-03-31T00:08:56.590Z,9.97
2023-03-31T00:10:10.421Z,9.99
2023-03-31T00:10:57.584Z,9.99
2023-03-31T00:11:56.550Z,9.97
2023-03-31T00:12:56.562Z,9.97
2023-03-31T00:13:56.529Z,9.97
2023-03-31T00:14:56.580Z,9.99
2023-03-31T00:15:56.506Z,10.00
2023-03-31T00:16:56.586Z,10.00
2023-03-31T00:17:56.502Z,9.99
2023-03-31T00:18:56.491Z,10.01
2023-03-31T00:19:56.460Z,10.03
2023-03-31T00:20:56.444Z,10.03
2023-03-31T00:21:56.417Z,10.04
2023-03-31T00:22:56.417Z,10.06
2023-03-31T00:23:56.423Z,10.07
2023-03-31T00:24:56.376Z,10.06
2023-03-31T00:25:56.372Z,10.09
2023-03-31T00:26:56.370Z,10.09
2023-03-31T00:27:56.354Z,10.07
2023-03-31T00:28:56.364Z,10.10
2023-03-31T00:29:56.317Z,10.14
2023-03-31T00:30:56.294Z,10.12
2023-03-31T00:31:56.365Z,10.12
2023-03-31T00:32:56.333Z,10.12
2023-03-31T00:33:56.270Z,10.10
2023-03-31T00:34:56.262Z,10.12
2023-03-31T00:35:56.273Z,10.14
2023-03-31T00:36:56.232Z,10.14
2023-03-31T00:37:56.234Z,10.18
2023-03-31T00:38:56.199Z,10.19
2023-03-31T00:39:56.216Z,10.21
2023-03-31T00:40:56.223Z,10.28
2023-03-31T00:41:56.170Z,10.30
2023-03-31T00:42:56.157Z,10.32
2023-03-31T00:43:56.144Z,10.30
2023-03-31T00:44:56.115Z,10.28
2023-03-31T00:45:56.172Z,10.28
2023-03-31T00:46:56.121Z,10.30
2023-03-31T00:47:56.209Z,10.32
2023-03-31T00:48:56.073Z,10.34
2023-03-31T00:49:56.074Z,10.36
2023-03-31T00:50:56.062Z,10.37
2023-03-31T00:51:56.042Z,10.39
2023-03-31T00:52:56.006Z,10.34
2023-03-31T00:53:56.003Z,10.37
2023-03-31T00:54:56.001Z,10.37
2023-03-31T00:55:56.000Z,10.37
2023-03-31T00:56:55.966Z,10.36
2023-03-31T00:57:55.989Z,10.36
2023-03-31T00:58:55.932Z,10.34
2023-03-31T00:59:55.946Z,10.33
2023-03-31T01:00:55.930Z,10.34
2023-03-31T01:01:55.906Z,10.33
2023-03-31T01:02:56.156Z,10.30
2023-03-31T01:03:55.940Z,10.33
2023-03-31T01:04:55.861Z,10.34
2023-03-31T01:05:55.858Z,10.33
2023-03-31T01:06:55.863Z,10.30
2023-03-31T01:07:55.823Z,10.28
2023-03-31T01:08:55.836Z,10.28
2023-03-31T01:09:55.807Z,10.28
2023-03-31T01:10:55.773Z,10.25
2023-03-31T01:11:55.786Z,10.30
2023-03-31T01:12:55.748Z,10.28
2023-03-31T01:13:55.761Z,10.26
2023-03-31T01:14:55.739Z,10.26
2023-03-31T01:15:55.734Z,10.26
2023-03-31T01:16:55.763Z,10.24
2023-03-31T01:17:55.920Z,10.22
2023-03-31T01:18:55.697Z,10.22
2023-03-31T01:19:55.679Z,10.21
2023-03-31T01:20:55.657Z,10.21
2023-03-31T01:21:55.651Z,10.21
2023-03-31T01:22:55.619Z,10.18
2023-03-31T01:23:55.699Z,10.19
2023-03-31T01:24:55.615Z,10.17
2023-03-31T01:25:55.591Z,10.15
2023-03-31T01:26:55.570Z,10.15
2023-03-31T01:27:55.578Z,10.10
2023-03-31T01:28:55.549Z,10.09
2023-03-31T01:29:55.563Z,10.10
2023-03-31T01:30:55.618Z,10.09
2023-03-31T01:31:55.513Z,10.09
2023-03-31T01:32:55.527Z,10.06
2023-03-31T01:33:55.503Z,10.06
2023-03-31T01:34:55.461Z,10.03
2023-03-31T01:35:55.520Z,10.03
2023-03-31T01:36:55.438Z,10.00
2023-03-31T01:37:55.429Z,10.00
2023-03-31T01:38:55.446Z,9.99
2023-03-31T01:39:55.430Z,9.97
2023-03-31T01:40:55.390Z,9.96
2023-03-31T01:41:55.388Z,9.96
2023-03-31T01:42:55.390Z,9.94
2023-03-31T01:43:55.402Z,9.89
2023-03-31T01:44:55.357Z,9.89
2023-03-31T01:45:55.375Z,9.88
2023-03-31T01:46:55.324Z,9.86
2023-03-31T01:47:55.351Z,9.83
2023-03-31T01:48:55.303Z,9.85
2023-03-31T01:49:55.303Z,9.83
2023-03-31T01:50:55.264Z,9.82
2023-03-31T01:51:55.274Z,9.81
2023-03-31T01:52:55.245Z,9.79
2023-03-31T01:53:55.222Z,9.78
2023-03-31T01:54:55.219Z,9.79
2023-03-31T01:55:55.219Z,9.78
2023-03-31T01:56:55.197Z,9.76
2023-03-31T01:57:55.182Z,9.78
2023-03-31T01:58:55.171Z,9.75
2023-03-31T01:59:55.141Z,9.76
2023-03-31T02:00:55.138Z,9.75
2023-03-31T02:01:55.208Z,9.76
2023-03-31T02:02:55.217Z,9.76
2023-03-31T02:03:55.132Z,9.76
2023-03-31T02:04:55.114Z,9.79
2023-03-31T02:05:55.093Z,9.81
2023-03-31T02:06:55.057Z,9.82
2023-03-31T02:07:55.061Z,9.83
2023-03-31T02:08:55.045Z,9.83
2023-03-31T02:09:55.031Z,9.82
2023-03-31T02:10:55.017Z,9.82
2023-03-31T02:11:55.117Z,9.82
2023-03-31T02:12:54.994Z,9.81
2023-03-31T02:13:54.960Z,9.81
2023-03-31T02:14:54.968Z,9.81
2023-03-31T02:15:55.028Z,9.82
2023-03-31T02:16:54.954Z,9.83
2023-03-31T02:17:54.987Z,9.83
2023-03-31T02:18:54.900Z,9.85
2023-03-31T02:19:54.903Z,9.88
2023-03-31T02:20:54.884Z,9.86
2023-03-31T02:21:54.861Z,9.86
2023-03-31T02:22:54.858Z,9.86
2023-03-31T02:23:54.849Z,9.86
2023-03-31T02:24:54.834Z,9.88
2023-03-31T02:25:54.846Z,9.88
2023-03-31T02:26:54.807Z,9.88
2023-03-31T02:27:54.793Z,9.89
2023-03-31T02:28:54.779Z,9.91
2023-03-31T02:29:54.758Z,9.91
2023-03-31T02:30:54.758Z,9.91
2023-03-31T02:31:54.786Z,9.91
2023-03-31T02:32:54.793Z,9.89
2023-03-31T02:33:54.724Z,9.89
2023-03-31T02:34:54.698Z,9.91
2023-03-31T02:35:54.718Z,9.89
2023-03-31T02:36:54.674Z,9.91
2023-03-31T02:37:54.675Z,9.89
2023-03-31T02:38:54.650Z,9.91
2023-03-31T02:39:54.658Z,9.94
2023-03-31T02:40:54.642Z,9.93
2023-03-31T02:41:54.630Z,9.93
2023-03-31T02:42:54.595Z,9.94
2023-03-31T02:43:54.608Z,9.94
2023-03-31T02:44:54.593Z,9.96
2023-03-31T02:45:54.663Z,9.94
2023-03-31T02:46:54.555Z,9.94
2023-03-31T02:47:54.616Z,9.96
2023-03-31T02:48:54.536Z,9.97
2023-03-31T02:49:54.524Z,9.99
2023-03-31T02:50:54.490Z,9.96
2023-03-31T02:51:54.477Z,9.96
2023-03-31T02:52:54.481Z,9.96
2023-03-31T02:53:54.479Z,9.97
2023-03-31T02:54:54.437Z,9.97
2023-03-31T02:55:54.455Z,9.96
2023-03-31T02:56:54.427Z,9.97
2023-03-31T02:57:54.442Z,9.99
2023-03-31T02:58:54.374Z,9.97
2023-03-31T02:59:54.399Z,9.99
2023-03-31T03:00:54.422Z,9.97
2023-03-31T03:01:55.470Z,9.97
2023-03-31T03:02:54.514Z,9.97
2023-03-31T03:03:54.353Z,9.99
2023-03-31T03:04:54.317Z,9.99
2023-03-31T03:05:54.307Z,10.00
2023-03-31T03:06:54.275Z,9.97
2023-03-31T03:07:54.294Z,9.97
2023-03-31T03:08:54.263Z,9.97
2023-03-31T03:09:54.257Z,10.00
2023-03-31T03:10:54.258Z,10.00
2023-03-31T03:11:54.249Z,10.00
2023-03-31T03:12:54.219Z,10.00
2023-03-31T03:13:54.209Z,9.99
2023-03-31T03:14:54.202Z,10.00
2023-03-31T03:15:54.186Z,10.00
2023-03-31T03:16:54.244Z,10.00
2023-03-31T03:17:54.173Z,10.00
2023-03-31T03:18:54.138Z,10.01
2023-03-31T03:19:54.138Z,10.03
2023-03-31T03:20:54.120Z,10.03
2023-03-31T03:21:54.112Z,10.04
2023-03-31T03:22:54.101Z,10.01
2023-03-31T03:23:54.072Z,10.01
2023-03-31T03:24:54.045Z,10.01
2023-03-31T03:25:54.067Z,10.04
2023-03-31T03:26:54.038Z,10.03
2023-03-31T03:27:54.032Z,10.03
2023-03-31T03:28:54.022Z,10.04
2023-03-31T03:29:54.002Z,10.06
2023-03-31T03:30:54.023Z,10.06
2023-03-31T03:31:53.978Z,10.06
2023-03-31T03:32:54.000Z,10.06
2023-03-31T03:33:53.986Z,10.04
2023-03-31T03:34:53.933Z,10.06
2023-03-31T03:35:53.970Z,10.06
2023-03-31T03:36:53.949Z,10.06
2023-03-31T03:37:53.893Z,10.06
2023-03-31T03:38:53.868Z,10.06
2023-03-31T03:39:53.872Z,10.04
2023-03-31T03:40:53.854Z,10.07
2023-03-31T03:41:53.859Z,10.07
2023-03-31T03:42:53.823Z,10.07
2023-03-31T03:43:53.817Z,10.07
2023-03-31T03:44:53.814Z,10.09
2023-03-31T03:45:53.815Z,10.07
2023-03-31T03:46:53.767Z,10.09
2023-03-31T03:47:53.834Z,10.10
2023-03-31T03:48:53.738Z,10.12
2023-03-31T03:49:53.739Z,10.12
2023-03-31T03:50:53.726Z,10.10
2023-03-31T03:51:53.727Z,10.12
2023-03-31T03:54:03.800Z,10.15
2023-03-31T03:55:03.794Z,10.12
2023-03-31T03:56:06.638Z,10.12
2023-03-31T03:57:03.836Z,10.14
2023-03-31T03:58:03.774Z,10.15
2023-03-31T03:59:03.772Z,10.15
2023-03-31T04:00:03.747Z,10.15
2023-03-31T04:01:03.723Z,10.17
2023-03-31T04:02:03.753Z,10.17
2023-03-31T04:03:03.798Z,10.17
2023-03-31T04:04:03.682Z,10.18
2023-03-31T04:05:03.687Z,10.17
2023-03-31T04:06:03.999Z,10.18
2023-03-31T04:07:03.687Z,10.19
2023-03-31T04:08:03.623Z,10.19
2023-03-31T04:09:03.625Z,10.19
2023-03-31T04:10:03.590Z,10.19
2023-03-31T04:11:03.616Z,10.19
2023-03-31T04:12:03.585Z,10.19
2023-03-31T04:13:03.563Z,10.21
2023-03-31T04:14:03.546Z,10.22
2023-03-31T04:15:03.598Z,10.21
2023-03-31T04:16:03.534Z,10.21
2023-03-31T04:17:03.559Z,10.19
2023-03-31T04:18:03.533Z,10.22
2023-03-31T04:19:03.498Z,10.21
2023-03-31T04:20:03.477Z,10.19
2023-03-31T04:21:03.483Z,10.18
2023-03-31T04:22:03.464Z,10.19
2023-03-31T04:23:03.449Z,10.18
2023-03-31T04:24:03.398Z,10.18
2023-03-31T04:25:03.413Z,10.17
2023-03-31T04:26:03.576Z,10.18
2023-03-31T04:27:03.471Z,10.17
2023-03-31T04:28:03.362Z,10.18
2023-03-31T04:29:03.511Z,10.19
2023-03-31T04:30:03.443Z,10.18
2023-03-31T04:31:03.326Z,10.19
2023-03-31T04:32:03.352Z,10.19
2023-03-31T04:33:03.329Z,10.18
2023-03-31T04:34:03.341Z,10.19
2023-03-31T04:35:03.305Z,10.19
2023-03-31T04:36:03.368Z,10.21
2023-03-31T04:37:03.262Z,10.19
2023-03-31T04:38:03.244Z,10.19
2023-03-31T04:39:03.221Z,10.19
2023-03-31T04:40:03.190Z,10.19
2023-03-31T04:41:03.181Z,10.19
2023-03-31T04:42:03.152Z,10.18
2023-03-31T04:43:03.166Z,10.19
2023-03-31T04:44:03.163Z,10.19
2023-03-31T04:45:03.151Z,10.19
2023-03-31T04:46:03.326Z,10.18
2023-03-31T04:47:03.398Z,10.17
2023-03-31T04:48:03.128Z,10.17
2023-03-31T04:49:03.095Z,10.15
2023-03-31T04:50:03.089Z,10.15
2023-03-31T04:51:03.074Z,10.15
2023-03-31T04:52:03.047Z,10.17
2023-03-31T04:53:03.050Z,10.17
2023-03-31T04:54:03.031Z,10.14
2023-03-31T04:55:02.997Z,10.14
2023-03-31T04:56:03.006Z,10.12
2023-03-31T04:57:02.979Z,10.12
2023-03-31T04:58:03.018Z,10.12
2023-03-31T04:59:02.959Z,10.12
2023-03-31T05:00:02.948Z,10.12
2023-03-31T05:01:02.980Z,10.12
2023-03-31T05:02:03.008Z,10.12
2023-03-31T05:03:02.961Z,10.12
2023-03-31T05:04:02.909Z,10.15
2023-03-31T05:05:02.862Z,10.12
2023-03-31T05:06:02.884Z,10.14
2023-03-31T05:07:02.837Z,10.17
2023-03-31T05:08:02.828Z,10.12
2023-03-31T05:09:02.841Z,10.15
2023-03-31T05:10:02.824Z,10.15
2023-03-31T05:11:02.833Z,10.15
2023-03-31T05:12:02.840Z,10.17
2023-03-31T05:13:02.841Z,10.18
2023-03-31T05:14:02.774Z,10.19
2023-03-31T05:15:02.778Z,10.19
2023-03-31T05:16:02.821Z,10.22
2023-03-31T05:17:02.791Z,10.22
2023-03-31T05:18:02.864Z,10.22
2023-03-31T05:19:02.789Z,10.24
2023-03-31T05:20:02.706Z,10.24
2023-03-31T05:21:02.706Z,10.24
2023-03-31T05:22:02.668Z,10.24
2023-03-31T05:23:02.646Z,10.26
2023-03-31T05:24:02.610Z,10.26
2023-03-31T05:25:02.636Z,10.26
2023-03-31T05:26:02.616Z,10.26
2023-03-31T05:27:02.599Z,10.28
2023-03-31T05:28:02.586Z,10.26
2023-03-31T05:29:02.557Z,10.28
2023-03-31T05:30:02.536Z,10.28
2023-03-31T05:31:02.519Z,10.28
2023-03-31T05:32:02.595Z,10.30
2023-03-31T05:33:02.610Z,10.30
2023-03-31T05:34:02.500Z,10.30
2023-03-31T05:35:02.482Z,10.32
2023-03-31T05:36:02.487Z,10.32
2023-03-31T05:37:02.461Z,10.34
2023-03-31T05:38:02.461Z,10.32
2023-03-31T05:39:02.426Z,10.33
2023-03-31T05:40:02.566Z,10.34
2023-03-31T05:41:02.384Z,10.36
2023-03-31T05:42:02.397Z,10.36
2023-03-31T05:43:02.390Z,10.33
2023-03-31T05:44:02.389Z,10.33
2023-03-31T05:45:02.349Z,10.36
2023-03-31T05:46:02.376Z,10.36
2023-03-31T05:47:02.322Z,10.36
2023-03-31T05:48:02.418Z,10.37
2023-03-31T05:49:02.302Z,10.34
2023-03-31T05:50:02.292Z,10.34
2023-03-31T05:51:02.278Z,10.36
2023-03-31T05:52:02.245Z,10.34
2023-03-31T05:53:02.256Z,10.34
2023-03-31T05:54:02.248Z,10.36
2023-03-31T05:55:02.226Z,10.39
2023-03-31T05:56:02.243Z,10.37
2023-03-31T05:57:02.209Z,10.36
2023-03-31T05:58:02.205Z,10.39
2023-03-31T05:59:02.167Z,10.40
2023-03-31T06:00:02.194Z,10.43
2023-03-31T06:01:02.193Z,10.44
2023-03-31T06:02:02.201Z,10.44
2023-03-31T06:03:02.256Z,10.52
2023-03-31T06:04:02.156Z,10.53
2023-03-31T06:05:02.170Z,10.58
2023-03-31T06:06:02.091Z,10.59
2023-03-31T06:07:02.046Z,10.62
2023-03-31T06:08:02.060Z,10.63
2023-03-31T06:09:02.018Z,10.68
2023-03-31T06:10:02.052Z,10.73
2023-03-31T06:11:02.042Z,10.74
2023-03-31T06:12:02.041Z,10.81
2023-03-31T06:13:01.990Z,10.88
2023-03-31T06:14:01.984Z,10.88
2023-03-31T06:15:01.981Z,10.88
2023-03-31T06:16:01.984Z,10.81
2023-03-31T06:17:01.948Z,10.77
2023-03-31T06:18:01.976Z,10.70
2023-03-31T06:19:01.903Z,10.71
2023-03-31T06:20:05.703Z,10.66
2023-03-31T06:21:02.876Z,10.63
2023-03-31T06:22:01.876Z,10.60
2023-03-31T06:23:01.868Z,10.59
2023-03-31T06:24:01.850Z,10.58
2023-03-31T06:25:01.967Z,10.60
2023-03-31T06:26:01.806Z,10.58
2023-03-31T06:27:01.797Z,10.62
2023-03-31T06:28:01.817Z,10.63
2023-03-31T06:29:01.767Z,10.70
2023-03-31T06:30:01.843Z,10.77
2023-03-31T06:31:01.754Z,10.84
2023-03-31T06:32:01.770Z,10.96
2023-03-31T06:33:01.777Z,11.01
2023-03-31T06:34:01.703Z,11.03
2023-03-31T06:35:01.689Z,11.10
2023-03-31T06:36:01.834Z,11.17
2023-03-31T06:37:01.663Z,11.32
2023-03-31T06:38:01.674Z,11.35
2023-03-31T06:39:01.634Z,11.50
2023-03-31T06:40:01.681Z,11.57
2023-03-31T06:41:01.671Z,11.46
2023-03-31T06:42:01.599Z,11.39
2023-03-31T06:43:01.600Z,11.44
2023-03-31T06:44:01.561Z,11.38
2023-03-31T06:45:01.565Z,11.34
2023-03-31T06:46:01.615Z,11.32
2023-03-31T06:47:01.521Z,11.34
2023-03-31T06:48:01.657Z,11.31
2023-03-31T06:49:01.530Z,11.31
2023-03-31T06:50:01.531Z,11.32
2023-03-31T06:51:01.496Z,11.38
2023-03-31T06:52:01.477Z,11.39
2023-03-31T06:53:01.696Z,11.44
2023-03-31T06:54:01.438Z,11.49
2023-03-31T06:55:01.442Z,11.56
2023-03-31T06:56:01.405Z,11.64
2023-03-31T06:57:01.438Z,11.72
2023-03-31T06:58:01.401Z,11.72
2023-03-31T06:59:01.367Z,11.77
2023-03-31T07:00:01.345Z,11.78
2023-03-31T07:01:01.398Z,11.80
2023-03-31T07:02:01.362Z,11.85
2023-03-31T07:03:01.537Z,11.78
2023-03-31T07:04:01.288Z,11.86
2023-03-31T07:05:01.309Z,11.93
2023-03-31T07:06:01.260Z,11.97
2023-03-31T07:07:01.260Z,12.04
2023-03-31T07:08:01.282Z,12.05
2023-03-31T07:09:01.235Z,12.04
2023-03-31T07:10:01.270Z,12.09
2023-03-31T07:11:01.229Z,12.11
2023-03-31T07:12:01.230Z,12.20
2023-03-31T07:13:02.311Z,12.26
2023-03-31T07:14:01.184Z,12.37
2023-03-31T07:15:01.160Z,12.34
2023-03-31T07:16:01.168Z,12.45
2023-03-31T07:17:01.117Z,12.52
2023-03-31T07:18:01.203Z,12.60
2023-03-31T07:19:01.098Z,12.49
2023-03-31T07:20:01.118Z,12.51
2023-03-31T07:21:01.085Z,12.62
2023-03-31T07:22:01.092Z,12.69
2023-03-31T07:23:01.060Z,12.77
2023-03-31T07:24:01.055Z,12.63
2023-03-31T07:25:01.041Z,12.62
2023-03-31T07:26:01.000Z,12.67
2023-03-31T07:27:01.005Z,12.77
2023-03-31T07:28:00.976Z,12.88
2023-03-31T07:29:00.967Z,12.95
2023-03-31T07:30:00.969Z,12.88
2023-03-31T07:31:00.934Z,12.84
2023-03-31T07:32:00.955Z,12.82
2023-03-31T07:33:00.915Z,12.88
2023-03-31T07:34:00.915Z,12.92
2023-03-31T07:35:00.904Z,12.93
2023-03-31T07:36:11.861Z,12.99
2023-03-31T07:37:01.847Z,13.04
2023-03-31T07:38:00.864Z,13.09
2023-03-31T07:39:00.845Z,13.18
2023-03-31T07:40:00.839Z,13.25
2023-03-31T07:41:08.533Z,13.32
2023-03-31T07:42:01.823Z,13.36
2023-03-31T07:43:00.784Z,13.38
2023-03-31T07:44:00.798Z,13.32
2023-03-31T07:45:00.755Z,13.40
2023-03-31T07:46:00.815Z,13.43
2023-03-31T07:47:00.717Z,13.44
2023-03-31T07:48:00.773Z,13.47
2023-03-31T07:49:00.706Z,13.44
2023-03-31T07:50:00.724Z,13.36
2023-03-31T07:51:00.685Z,13.24
2023-03-31T07:52:00.659Z,13.25
2023-03-31T07:53:00.649Z,13.30
2023-03-31T07:54:00.655Z,13.24
2023-03-31T07:55:00.671Z,13.27
2023-03-31T07:56:00.617Z,13.29
2023-03-31T07:57:00.638Z,13.29
2023-03-31T07:58:00.592Z,13.33
2023-03-31T07:59:00.557Z,13.32
2023-03-31T08:00:00.558Z,13.37
2023-03-31T08:01:00.554Z,13.32
2023-03-31T08:02:00.593Z,13.40
2023-03-31T08:03:00.682Z,13.47
2023-03-31T08:04:00.579Z,13.38
2023-03-31T08:05:00.549Z,13.41
2023-03-31T08:06:00.469Z,13.56
2023-03-31T08:07:00.463Z,13.67
2023-03-31T08:08:00.506Z,13.77
2023-03-31T08:09:00.455Z,13.83
2023-03-31T08:10:00.428Z,13.77
2023-03-31T08:11:00.416Z,13.76
2023-03-31T08:12:00.429Z,13.79
2023-03-31T08:13:00.380Z,13.74
2023-03-31T08:14:00.373Z,13.71
2023-03-31T08:15:00.368Z,13.69
2023-03-31T08:16:00.367Z,13.70
2023-03-31T08:17:00.328Z,13.63
2023-03-31T08:18:00.371Z,13.77
2023-03-31T08:19:00.301Z,13.92
2023-03-31T08:20:05.155Z,13.96
2023-03-31T08:21:01.267Z,13.98
2023-03-31T08:22:00.289Z,14.06
2023-03-31T08:23:00.276Z,14.04
2023-03-31T08:24:00.252Z,14.10
2023-03-31T08:25:00.220Z,14.09
2023-03-31T08:26:00.200Z,14.16
2023-03-31T08:27:00.204Z,14.20
2023-03-31T08:28:00.211Z,14.32
2023-03-31T08:29:00.175Z,14.44
2023-03-31T08:30:00.202Z,14.47
2023-03-31T08:31:00.146Z,14.47
2023-03-31T08:32:00.215Z,14.47
2023-03-31T08:33:00.187Z,14.38
2023-03-31T08:34:00.139Z,14.37
2023-03-31T08:35:00.123Z,14.46
2023-03-31T08:36:00.148Z,14.52
2023-03-31T08:37:00.065Z,14.43
2023-03-31T08:38:00.102Z,14.37
2023-03-31T08:39:00.059Z,14.39
2023-03-31T08:40:00.039Z,14.47
2023-03-31T08:41:00.022Z,14.46
2023-03-31T08:42:00.064Z,14.60
2023-03-31T08:43:00.003Z,14.60
2023-03-31T08:44:00.006Z,14.62
2023-03-31T08:45:00.009Z,14.52
2023-03-31T08:45:59.998Z,14.50
2023-03-31T08:46:59.943Z,14.39
2023-03-31T08:47:59.978Z,14.42
2023-03-31T08:48:59.953Z,14.39
2023-03-31T08:49:59.933Z,14.47
2023-03-31T08:50:59.920Z,14.61
2023-03-31T08:51:59.872Z,14.69
2023-03-31T08:52:59.867Z,14.84
2023-03-31T08:53:59.850Z,14.95
2023-03-31T08:54:59.868Z,15.09
2023-03-31T08:55:59.864Z,15.15
2023-03-31T08:56:59.860Z,15.08
2023-03-31T08:57:59.811Z,15.13
2023-03-31T08:58:59.814Z,14.87
2023-03-31T08:59:59.809Z,14.78
2023-03-31T09:00:59.831Z,14.61
2023-03-31T09:01:59.766Z,14.65
2023-03-31T09:02:59.795Z,14.52
2023-03-31T09:03:59.957Z,14.60
2023-03-31T09:04:59.717Z,14.69
2023-03-31T09:06:00.905Z,14.84
2023-03-31T09:06:59.704Z,14.94
2023-03-31T09:07:59.678Z,15.06
2023-03-31T09:08:59.675Z,15.13
2023-03-31T09:09:59.674Z,15.12
2023-03-31T09:10:59.637Z,15.02
2023-03-31T09:11:59.663Z,14.80
2023-03-31T09:12:59.600Z,14.62
2023-03-31T09:13:59.592Z,14.67
2023-03-31T09:14:59.570Z,14.69
2023-03-31T09:15:59.579Z,14.80
2023-03-31T09:16:59.614Z,14.87
2023-03-31T09:17:59.604Z,14.90
2023-03-31T09:18:59.544Z,14.69
2023-03-31T09:19:59.535Z,14.72
2023-03-31T09:20:59.529Z,14.74
2023-03-31T09:21:59.495Z,14.80
2023-03-31T09:22:59.474Z,14.60
2023-03-31T09:23:59.485Z,14.57
2023-03-31T09:24:59.465Z,14.52
2023-03-31T09:25:59.428Z,14.50
2023-03-31T09:26:59.430Z,14.52
2023-03-31T09:27:59.423Z,14.52
2023-03-31T09:28:59.429Z,14.53
2023-03-31T09:29:59.394Z,14.60
2023-03-31T09:30:59.379Z,14.64
2023-03-31T09:31:59.375Z,14.69
2023-03-31T09:32:59.405Z,14.81
2023-03-31T09:33:59.357Z,14.90
2023-03-31T09:34:59.328Z,14.93
2023-03-31T09:35:59.326Z,15.09
2023-03-31T09:36:59.292Z,15.28
2023-03-31T09:37:59.285Z,15.39
2023-03-31T09:38:59.277Z,15.45
2023-03-31T09:39:59.269Z,15.42
2023-03-31T09:40:59.234Z,15.49
2023-03-31T09:41:59.238Z,15.61
2023-03-31T09:42:59.256Z,15.42
2023-03-31T09:43:59.195Z,15.13
2023-03-31T09:44:59.209Z,15.01
2023-03-31T09:46:09.338Z,15.12
2023-03-31T09:47:00.305Z,15.24
2023-03-31T09:47:59.284Z,15.38
2023-03-31T09:48:59.129Z,15.45
2023-03-31T09:49:59.151Z,15.51
2023-03-31T09:50:59.177Z,15.45
2023-03-31T09:51:59.098Z,15.46
2023-03-31T09:52:59.178Z,15.42
2023-03-31T09:54:07.197Z,15.39
2023-03-31T09:54:59.084Z,15.17
2023-03-31T09:55:59.075Z,15.05
2023-03-31T09:56:59.063Z,14.88
2023-03-31T09:57:59.180Z,14.75
2023-03-31T09:58:59.001Z,14.68
2023-03-31T09:59:58.997Z,14.69
2023-03-31T10:00:58.993Z,14.67
2023-03-31T10:01:59.127Z,14.62
2023-03-31T10:02:59.011Z,14.60
2023-03-31T10:03:59.140Z,14.57
2023-03-31T10:04:58.915Z,14.49
2023-03-31T10:05:58.969Z,14.50
2023-03-31T10:06:58.927Z,14.50
2023-03-31T10:07:58.881Z,14.50
2023-03-31T10:08:58.865Z,14.49
2023-03-31T10:09:58.852Z,14.52
2023-03-31T10:10:58.864Z,14.52
2023-03-31T10:11:58.863Z,14.54
2023-03-31T10:12:58.832Z,14.44
2023-03-31T10:13:58.857Z,14.31
2023-03-31T10:14:58.806Z,14.31
2023-03-31T10:15:58.832Z,14.31
2023-03-31T10:17:01.087Z,14.39
2023-03-31T10:17:58.774Z,14.49
2023-03-31T10:18:58.761Z,14.62
2023-03-31T10:19:58.743Z,14.78
2023-03-31T10:20:58.722Z,14.90
2023-03-31T10:21:58.705Z,14.98
2023-03-31T10:22:58.709Z,15.05
2023-03-31T10:23:58.686Z,15.13
2023-03-31T10:24:58.673Z,15.11
2023-03-31T10:25:58.655Z,15.11
2023-03-31T10:26:58.641Z,15.12
2023-03-31T10:27:58.623Z,15.09
2023-03-31T10:28:58.619Z,15.08
2023-03-31T10:29:58.615Z,15.09
2023-03-31T10:30:58.700Z,15.02
2023-03-31T10:31:58.627Z,15.03
2023-03-31T10:33:01.557Z,15.06
2023-03-31T10:33:59.544Z,15.13
2023-03-31T10:34:58.539Z,15.26
2023-03-31T10:35:58.563Z,15.23
2023-03-31T10:36:58.524Z,15.28
2023-03-31T10:37:58.497Z,15.42
2023-03-31T10:38:58.494Z,15.54
2023-03-31T10:39:58.471Z,15.57
2023-03-31T10:40:58.504Z,15.59
2023-03-31T10:41:58.455Z,15.63
2023-03-31T10:42:58.474Z,15.57
2023-03-31T10:43:58.421Z,15.56
2023-03-31T10:44:58.417Z,15.45
2023-03-31T10:45:58.443Z,15.31
2023-03-31T10:46:58.430Z,15.30
2023-03-31T10:47:58.436Z,15.26
2023-03-31T10:48:58.370Z,15.31
2023-03-31T10:49:58.360Z,15.20
2023-03-31T10:50:58.335Z,15.15
2023-03-31T10:51:58.312Z,15.09
2023-03-31T10:52:58.319Z,15.11
2023-03-31T10:53:58.286Z,15.17
2023-03-31T10:54:58.272Z,15.19
2023-03-31T10:55:58.267Z,15.21
2023-03-31T10:56:58.244Z,15.28
2023-03-31T10:57:58.233Z,15.39
2023-03-31T10:59:05.211Z,15.43
2023-03-31T10:59:59.202Z,15.39
2023-03-31T11:00:58.181Z,15.43
2023-03-31T11:02:00.284Z,15.48
2023-03-31T11:02:58.277Z,15.43
2023-03-31T11:03:58.229Z,15.27
2023-03-31T11:04:58.154Z,15.27
2023-03-31T11:05:58.131Z,15.35
2023-03-31T11:06:58.134Z,15.42
2023-03-31T11:07:58.098Z,15.48
2023-03-31T11:08:58.092Z,15.43
2023-03-31T11:09:58.083Z,15.41
2023-03-31T11:10:58.069Z,15.38
2023-03-31T11:11:58.054Z,15.31
2023-03-31T11:12:58.046Z,15.19
2023-03-31T11:13:58.024Z,15.09
2023-03-31T11:14:58.015Z,15.12
2023-03-31T11:15:58.007Z,15.15
2023-03-31T11:16:58.019Z,15.09
2023-03-31T11:17:58.008Z,14.98
2023-03-31T11:18:57.948Z,14.99
2023-03-31T11:19:57.930Z,14.99
2023-03-31T11:20:57.956Z,15.06
2023-03-31T11:21:57.945Z,15.15
2023-03-31T11:22:57.896Z,15.20
2023-03-31T11:23:57.894Z,15.12
2023-03-31T11:24:57.876Z,15.21
2023-03-31T11:25:57.873Z,15.38
2023-03-31T11:26:57.873Z,15.46
2023-03-31T11:27:57.841Z,15.64
2023-03-31T11:28:57.848Z,15.79
2023-03-31T11:29:57.818Z,15.59
2023-03-31T11:30:57.825Z,15.43
2023-03-31T11:31:57.819Z,15.52
2023-03-31T11:32:57.832Z,15.52
2023-03-31T11:33:57.743Z,15.48
2023-03-31T11:34:57.747Z,15.45
2023-03-31T11:35:57.725Z,15.21
2023-03-31T11:36:57.734Z,15.27
2023-03-31T11:37:57.689Z,15.12
2023-03-31T11:38:57.703Z,15.21
2023-03-31T11:39:57.684Z,15.20
2023-03-31T11:40:57.680Z,15.11
2023-03-31T11:41:57.699Z,15.11
2023-03-31T11:42:57.643Z,15.12
2023-03-31T11:43:57.610Z,15.17
2023-03-31T11:44:57.615Z,15.17
2023-03-31T11:45:57.633Z,15.19
2023-03-31T11:46:57.590Z,15.35
2023-03-31T11:47:57.642Z,15.41
2023-03-31T11:48:57.577Z,15.52
2023-03-31T11:49:57.578Z,15.70
2023-03-31T11:50:57.534Z,15.75
2023-03-31T11:51:57.519Z,15.86
2023-03-31T11:52:57.525Z,15.89
2023-03-31T11:53:57.526Z,15.99
2023-03-31T11:54:57.464Z,16.06
2023-03-31T11:55:57.475Z,15.97
2023-03-31T11:56:57.472Z,15.89
2023-03-31T11:57:57.444Z,15.64
2023-03-31T11:58:57.467Z,15.63
2023-03-31T11:59:57.480Z,15.57
2023-03-31T12:00:57.402Z,15.64
2023-03-31T12:01:57.376Z,15.68
2023-03-31T12:02:57.419Z,15.78
2023-03-31T12:03:57.423Z,15.75
2023-03-31T12:04:57.369Z,15.46
2023-03-31T12:05:57.372Z,15.39
2023-03-31T12:06:57.308Z,15.39
2023-03-31T12:07:57.305Z,15.51
2023-03-31T12:08:57.325Z,15.61
2023-03-31T12:09:57.278Z,15.67
2023-03-31T12:10:57.266Z,15.74
2023-03-31T12:11:57.256Z,15.64
2023-03-31T12:12:57.225Z,15.63
2023-03-31T12:13:57.215Z,15.43
2023-03-31T12:14:57.205Z,15.38
2023-03-31T12:15:57.197Z,15.36
2023-03-31T12:16:57.217Z,15.48
2023-03-31T12:17:57.226Z,15.42
2023-03-31T12:19:04.382Z,15.46
2023-03-31T12:19:57.171Z,15.48
2023-03-31T12:20:57.138Z,15.52
2023-03-31T12:21:57.119Z,15.57
2023-03-31T12:22:57.095Z,15.51
2023-03-31T12:23:57.123Z,15.49
2023-03-31T12:24:57.089Z,15.46
2023-03-31T12:25:57.086Z,15.46
2023-03-31T12:26:57.068Z,15.41
2023-03-31T12:27:57.030Z,15.46
2023-03-31T12:28:57.207Z,15.43
2023-03-31T12:29:57.026Z,15.39
2023-03-31T12:30:57.033Z,15.31
2023-03-31T12:31:57.163Z,15.21
2023-03-31T12:32:56.969Z,15.08
2023-03-31T12:33:57.007Z,15.11
2023-03-31T12:34:56.952Z,15.08
2023-03-31T12:35:56.961Z,15.06
2023-03-31T12:36:56.918Z,15.13
2023-03-31T12:37:56.909Z,15.06
2023-03-31T12:38:56.904Z,15.13
2023-03-31T12:39:56.881Z,15.02
2023-03-31T12:40:56.882Z,14.98
2023-03-31T12:41:56.830Z,14.99
2023-03-31T12:42:56.827Z,15.01
2023-03-31T12:43:56.828Z,14.95
2023-03-31T12:44:56.831Z,14.98
2023-03-31T12:45:56.784Z,14.91
2023-03-31T12:46:56.857Z,14.80
2023-03-31T12:47:56.813Z,14.78
2023-03-31T12:48:56.822Z,14.80
2023-03-31T12:49:56.889Z,14.87
2023-03-31T12:50:56.720Z,14.88
2023-03-31T12:51:56.734Z,14.93
2023-03-31T12:52:56.694Z,14.99
2023-03-31T12:53:57.115Z,14.83
2023-03-31T12:54:56.676Z,14.72
2023-03-31T12:55:56.654Z,14.61
2023-03-31T12:56:56.709Z,14.52
2023-03-31T12:57:56.622Z,14.28